Time;durP1;ratioP1;P1;durP2;ratioP2;P2;SDS_P1;SDS_P2;PMS_P1;PMS_P2;Temp;Humidity;BMP_temperature;BMP_pressure;BME280_temperature;BME280_humidity;BME280_pressure;Samples;Min_cycle;Max_cycle;Signal;HPM_P1;HPM_P2
2023/07/24 00:01:25;;;;;;;5.07;2.25;;;;;;;;;;4976327;28;20752;-77
2023/07/24 00:03:51;;;;;;;4.10;2.17;;;;;;;;;;4975042;28;20061;-80
2023/07/24 00:06:16;;;;;;;4.03;2.00;;;;;;;;;;4965509;28;20108;-78
2023/07/24 00:08:41;;;;;;;4.57;2.40;;;;;;;;;;4982869;28;20042;-76
2023/07/24 00:11:08;;;;;;;5.65;2.40;;;;;;;;;;4972261;28;20043;-77
2023/07/24 00:13:33;;;;;;;4.40;2.10;;;;;;;;;;4975826;28;20105;-77
2023/07/24 00:15:58;;;;;;;3.67;2.08;;;;;;;;;;4972730;28;20047;-79
2023/07/24 00:18:24;;;;;;;4.75;2.13;;;;;;;;;;4966085;28;20114;-77
2023/07/24 00:20:49;;;;;;;5.13;1.90;;;;;;;;;;4966158;28;20452;-79
2023/07/24 00:23:14;;;;;;;4.00;2.15;;;;;;;;;;4980015;28;20387;-76
2023/07/24 00:25:40;;;;;;;4.95;2.10;;;;;;;;;;4987747;28;20133;-79
2023/07/24 00:28:05;;;;;;;4.50;2.42;;;;;;;;;;4974546;28;20085;-76
2023/07/24 00:30:31;;;;;;;3.85;2.17;;;;;;;;;;4976128;28;20490;-77
2023/07/24 00:32:56;;;;;;;4.00;2.13;;;;;;;;;;4979452;28;20033;-78
2023/07/24 00:35:22;;;;;;;4.18;2.17;;;;;;;;;;4983495;28;20076;-77
2023/07/24 00:37:47;;;;;;;4.82;2.08;;;;;;;;;;4975284;28;20037;-77
2023/07/24 00:40:12;;;;;;;4.75;2.17;;;;;;;;;;4965096;28;20049;-77
2023/07/24 00:42:38;;;;;;;3.95;2.17;;;;;;;;;;4965116;28;20046;-77
2023/07/24 00:45:04;;;;;;;4.40;2.10;;;;;;;;;;4966952;28;20031;-77
2023/07/24 00:47:29;;;;;;;4.63;2.20;;;;;;;;;;4974612;28;20039;-80
2023/07/24 00:49:55;;;;;;;4.28;2.15;;;;;;;;;;4966992;28;20038;-77
2023/07/24 00:52:23;;;;;;;7.20;2.55;;;;;;;;;;4973805;28;20038;-78
2023/07/24 00:54:49;;;;;;;4.70;2.15;;;;;;;;;;4975258;28;20216;-77
2023/07/24 00:57:14;;;;;;;4.72;2.47;;;;;;;;;;4957896;28;20126;-77
2023/07/24 00:59:42;;;;;;;4.47;2.45;;;;;;;;;;4974323;28;20096;-77
2023/07/24 01:02:07;;;;;;;5.25;2.10;;;;;;;;;;4989077;28;20096;-77
2023/07/24 01:04:33;;;;;;;4.40;2.20;;;;;;;;;;4964804;28;20486;-78
2023/07/24 01:06:58;;;;;;;6.47;2.42;;;;;;;;;;4966611;28;20121;-77
2023/07/24 01:09:24;;;;;;;4.72;2.25;;;;;;;;;;4963663;28;20035;-77
2023/07/24 01:11:57;;;;;;;4.43;2.20;;;;;;;;;;4974191;28;20038;-79
2023/07/24 01:14:31;;;;;;;3.33;1.95;;;;;;;;;;4979041;28;20092;-77
2023/07/24 01:16:58;;;;;;;4.30;2.33;;;;;;;;;;4976442;28;20140;-76
2023/07/24 01:19:40;;;;;;;5.10;2.40;;;;;;;;;;4979259;28;20170;-77
2023/07/24 01:22:29;;;;;;;4.70;2.10;;;;;;;;;;4971829;28;20117;-78
2023/07/24 01:24:54;;;;;;;4.10;2.25;;;;;;;;;;4993112;28;20035;-78
2023/07/24 01:27:23;;;;;;;5.75;2.10;;;;;;;;;;4973163;28;20517;-78
2023/07/24 01:29:48;;;;;;;5.15;2.00;;;;;;;;;;4990276;28;20045;-77
2023/07/24 01:32:14;;;;;;;4.57;2.13;;;;;;;;;;4962381;28;20419;-79
2023/07/24 01:34:39;;;;;;;4.68;2.40;;;;;;;;;;4973047;28;20066;-77
2023/07/24 01:37:05;;;;;;;4.55;2.40;;;;;;;;;;4955831;28;20497;-78
2023/07/24 01:39:30;;;;;;;7.00;2.40;;;;;;;;;;4979003;28;20506;-79
2023/07/24 01:41:56;;;;;;;4.22;2.00;;;;;;;;;;4963827;28;20505;-78
2023/07/24 01:44:21;;;;;;;3.75;2.00;;;;;;;;;;4981443;28;20145;-80
2023/07/24 01:46:47;;;;;;;5.18;2.20;;;;;;;;;;4957911;28;20081;-80
2023/07/24 01:49:12;;;;;;;3.85;2.00;;;;;;;;;;4967757;28;20047;-78
2023/07/24 01:51:37;;;;;;;4.82;2.25;;;;;;;;;;4971743;28;20402;-78
2023/07/24 01:54:03;;;;;;;4.43;2.10;;;;;;;;;;4974599;28;20031;-78
2023/07/24 01:56:28;;;;;;;5.80;2.17;;;;;;;;;;4979318;28;20178;-77
2023/07/24 01:58:53;;;;;;;4.95;2.30;;;;;;;;;;4975431;28;20054;-78
2023/07/24 02:01:19;;;;;;;4.85;2.05;;;;;;;;;;4983257;28;20039;-77
2023/07/24 02:03:44;;;;;;;4.25;2.00;;;;;;;;;;4980191;28;20478;-78
2023/07/24 02:06:10;;;;;;;3.92;1.95;;;;;;;;;;4972326;28;20474;-78
2023/07/24 02:08:35;;;;;;;3.53;1.90;;;;;;;;;;4973666;28;20042;-77
2023/07/24 02:11:00;;;;;;;4.43;2.13;;;;;;;;;;4973116;28;20035;-77
2023/07/24 02:13:26;;;;;;;4.30;2.03;;;;;;;;;;4979519;28;20054;-77
2023/07/24 02:15:53;;;;;;;5.20;2.38;;;;;;;;;;4974678;28;20034;-77
2023/07/24 02:18:18;;;;;;;4.15;2.25;;;;;;;;;;4974238;28;20049;-77
2023/07/24 02:20:51;;;;;;;4.20;2.05;;;;;;;;;;4967170;28;20058;-78
2023/07/24 02:23:19;;;;;;;6.00;2.10;;;;;;;;;;4966322;28;20687;-77
2023/07/24 02:25:44;;;;;;;4.32;1.90;;;;;;;;;;4973395;28;20378;-77
2023/07/24 02:28:10;;;;;;;4.63;2.25;;;;;;;;;;4961782;28;20041;-78
2023/07/24 02:30:39;;;;;;;4.35;2.10;;;;;;;;;;4957610;28;20074;-78
2023/07/24 02:33:04;;;;;;;6.07;2.20;;;;;;;;;;4955933;28;20186;-78
2023/07/24 02:35:42;;;;;;;4.38;2.20;;;;;;;;;;4962084;28;20120;-78
2023/07/24 02:38:08;;;;;;;4.10;2.00;;;;;;;;;;4972840;28;20062;-78
2023/07/24 02:40:33;;;;;;;4.68;2.15;;;;;;;;;;4979691;28;20632;-78
2023/07/24 02:42:59;;;;;;;5.25;1.85;;;;;;;;;;4973447;28;20499;-77
2023/07/24 02:45:24;;;;;;;5.15;1.95;;;;;;;;;;4959483;28;20065;-76
2023/07/24 02:47:50;;;;;;;3.42;1.77;;;;;;;;;;4966228;28;20474;-77
2023/07/24 02:50:15;;;;;;;4.80;2.17;;;;;;;;;;4972789;28;20042;-77
2023/07/24 02:52:40;;;;;;;3.97;1.95;;;;;;;;;;4960548;28;20035;-77
2023/07/24 02:55:06;;;;;;;4.55;1.85;;;;;;;;;;4974299;28;20038;-77
2023/07/24 02:57:31;;;;;;;3.72;1.60;;;;;;;;;;4965528;28;20039;-78
2023/07/24 02:59:57;;;;;;;4.45;2.00;;;;;;;;;;4973343;28;20035;-77
2023/07/24 03:02:22;;;;;;;3.33;1.55;;;;;;;;;;4964288;28;20418;-76
2023/07/24 03:04:47;;;;;;;3.83;1.63;;;;;;;;;;4963706;28;20042;-76
2023/07/24 03:07:13;;;;;;;3.78;1.80;;;;;;;;;;4965333;28;20406;-77
2023/07/24 03:09:38;;;;;;;4.03;1.65;;;;;;;;;;4959206;28;20434;-77
2023/07/24 03:12:04;;;;;;;4.63;1.83;;;;;;;;;;4972957;28;20054;-77
2023/07/24 03:14:29;;;;;;;4.20;1.73;;;;;;;;;;4979096;28;20520;-78
2023/07/24 03:16:55;;;;;;;4.60;1.63;;;;;;;;;;4971875;28;20118;-77
2023/07/24 03:19:20;;;;;;;3.70;1.52;;;;;;;;;;4974061;28;20053;-77
2023/07/24 03:21:46;;;;;;;3.65;1.90;;;;;;;;;;4975807;28;20039;-76
2023/07/24 03:24:11;;;;;;;5.13;1.90;;;;;;;;;;4965255;28;20129;-77
2023/07/24 03:26:36;;;;;;;3.80;1.77;;;;;;;;;;4968412;28;20047;-77
2023/07/24 03:29:03;;;;;;;4.18;1.92;;;;;;;;;;4967726;28;20082;-76
2023/07/24 03:31:28;;;;;;;3.95;1.90;;;;;;;;;;4975830;28;20039;-76
2023/07/24 03:33:53;;;;;;;3.67;1.50;;;;;;;;;;4976433;28;20041;-77
2023/07/24 03:36:18;;;;;;;4.55;1.98;;;;;;;;;;4969782;28;20110;-77
2023/07/24 03:38:44;;;;;;;3.30;1.65;;;;;;;;;;4978070;28;20093;-77
2023/07/24 03:41:09;;;;;;;2.97;1.40;;;;;;;;;;4976611;28;20050;-77
2023/07/24 03:43:35;;;;;;;4.90;1.45;;;;;;;;;;4977722;28;20034;-77
2023/07/24 03:46:00;;;;;;;3.08;1.35;;;;;;;;;;4981522;28;20125;-77
2023/07/24 03:48:25;;;;;;;4.60;1.50;;;;;;;;;;4965150;28;20038;-77
2023/07/24 03:50:58;;;;;;;3.22;1.35;;;;;;;;;;4976974;28;20033;-77
2023/07/24 03:53:23;;;;;;;3.10;1.48;;;;;;;;;;4977469;28;20046;-76
2023/07/24 03:55:48;;;;;;;4.30;1.60;;;;;;;;;;4971334;28;20043;-77
2023/07/24 03:58:14;;;;;;;3.20;1.40;;;;;;;;;;4985911;28;20409;-76
2023/07/24 04:00:39;;;;;;;3.42;1.30;;;;;;;;;;4962715;28;20049;-76
2023/07/24 04:03:04;;;;;;;3.15;1.40;;;;;;;;;;4968773;28;20061;-77
2023/07/24 04:05:30;;;;;;;3.45;1.45;;;;;;;;;;4976419;28;20121;-77
2023/07/24 04:07:55;;;;;;;2.97;1.40;;;;;;;;;;4978267;28;20487;-77
2023/07/24 04:10:21;;;;;;;2.65;1.30;;;;;;;;;;4995343;28;20034;-79
2023/07/24 04:12:46;;;;;;;3.50;1.60;;;;;;;;;;4982945;28;20041;-78
2023/07/24 04:15:11;;;;;;;2.92;1.40;;;;;;;;;;4977719;28;20134;-78
2023/07/24 04:17:38;;;;;;;4.00;1.38;;;;;;;;;;4975784;28;20129;-76
2023/07/24 04:20:05;;;;;;;3.60;1.20;;;;;;;;;;4983734;28;20038;-76
2023/07/24 04:22:30;;;;;;;2.53;1.13;;;;;;;;;;4978912;28;20201;-76
2023/07/24 04:24:55;;;;;;;3.67;1.60;;;;;;;;;;4969370;28;20130;-78
2023/07/24 04:27:21;;;;;;;2.50;1.10;;;;;;;;;;4967840;28;20046;-77
2023/07/24 04:29:49;;;;;;;2.45;1.15;;;;;;;;;;4980581;28;20188;-78
2023/07/24 04:32:15;;;;;;;2.72;1.05;;;;;;;;;;4973394;28;20125;-76
2023/07/24 04:34:40;;;;;;;2.67;1.13;;;;;;;;;;4977774;28;20181;-76
2023/07/24 04:37:05;;;;;;;3.63;1.13;;;;;;;;;;4966910;28;20042;-76
2023/07/24 04:39:31;;;;;;;3.20;1.27;;;;;;;;;;4975997;28;20042;-76
2023/07/24 04:41:56;;;;;;;2.38;1.05;;;;;;;;;;4963275;28;20409;-76
2023/07/24 04:44:21;;;;;;;3.30;1.05;;;;;;;;;;4964709;28;20402;-78
2023/07/24 04:46:47;;;;;;;2.80;1.20;;;;;;;;;;4973526;28;20035;-78
2023/07/24 04:49:12;;;;;;;3.72;1.10;;;;;;;;;;4980755;28;20034;-77
2023/07/24 04:51:38;;;;;;;4.07;0.90;;;;;;;;;;4965423;28;20054;-76
2023/07/24 04:54:03;;;;;;;2.67;1.10;;;;;;;;;;4966823;28;20035;-76
2023/07/24 04:56:28;;;;;;;3.22;0.90;;;;;;;;;;4974193;28;20042;-76
2023/07/24 04:58:54;;;;;;;2.35;1.02;;;;;;;;;;4975506;28;21026;-76
2023/07/24 05:01:19;;;;;;;2.38;1.00;;;;;;;;;;4975385;28;20501;-77
2023/07/24 05:03:44;;;;;;;2.28;0.80;;;;;;;;;;4989457;28;20113;-76
2023/07/24 05:06:10;;;;;;;2.20;0.90;;;;;;;;;;4962262;28;20049;-76
2023/07/24 05:08:35;;;;;;;1.67;0.80;;;;;;;;;;4990184;28;20065;-77
2023/07/24 05:11:01;;;;;;;2.45;0.73;;;;;;;;;;4958839;28;20124;-77
2023/07/24 05:13:26;;;;;;;3.83;1.00;;;;;;;;;;4967618;28;20038;-78
2023/07/24 05:15:52;;;;;;;2.25;0.80;;;;;;;;;;4963422;28;20046;-77
2023/07/24 05:18:17;;;;;;;3.78;1.13;;;;;;;;;;4981665;28;20494;-77
2023/07/24 05:20:47;;;;;;;2.05;0.80;;;;;;;;;;4973452;28;20171;-78
2023/07/24 05:23:13;;;;;;;1.85;0.80;;;;;;;;;;4981219;28;20163;-77
2023/07/24 05:25:38;;;;;;;2.45;1.05;;;;;;;;;;4958334;28;20490;-77
2023/07/24 05:28:04;;;;;;;1.92;0.80;;;;;;;;;;4980251;28;20509;-78
2023/07/24 05:30:29;;;;;;;3.58;1.25;;;;;;;;;;4973177;28;20093;-78
2023/07/24 05:32:54;;;;;;;2.17;0.90;;;;;;;;;;4989330;28;20031;-77
2023/07/24 05:35:20;;;;;;;2.45;0.80;;;;;;;;;;4972408;28;20122;-77
2023/07/24 05:37:46;;;;;;;1.98;0.85;;;;;;;;;;4975042;28;20397;-78
2023/07/24 05:40:11;;;;;;;3.47;0.95;;;;;;;;;;4974499;28;20049;-78
2023/07/24 05:42:41;;;;;;;3.33;0.90;;;;;;;;;;4976876;28;20042;-78
2023/07/24 05:45:07;;;;;;;1.83;0.90;;;;;;;;;;4971253;28;20058;-75
2023/07/24 05:47:33;;;;;;;3.67;0.95;;;;;;;;;;4973021;28;20043;-76
2023/07/24 05:49:58;;;;;;;2.55;1.05;;;;;;;;;;4967579;28;20049;-78
2023/07/24 05:52:24;;;;;;;2.88;0.95;;;;;;;;;;4971862;28;20053;-78
2023/07/24 05:54:49;;;;;;;1.90;0.90;;;;;;;;;;4972920;28;20574;-78
2023/07/24 05:57:14;;;;;;;2.03;0.90;;;;;;;;;;4964950;28;20566;-77
2023/07/24 05:59:40;;;;;;;2.10;0.95;;;;;;;;;;4977759;28;20422;-78
2023/07/24 06:02:07;;;;;;;2.80;1.10;;;;;;;;;;4974061;28;20121;-78
2023/07/24 06:04:32;;;;;;;2.42;1.05;;;;;;;;;;4977321;28;20169;-78
2023/07/24 06:06:58;;;;;;;2.47;1.00;;;;;;;;;;4956142;28;20137;-78
2023/07/24 06:09:23;;;;;;;3.05;1.10;;;;;;;;;;4961445;28;20121;-78
2023/07/24 06:11:48;;;;;;;3.20;1.38;;;;;;;;;;4957635;28;20085;-79
2023/07/24 06:14:14;;;;;;;2.63;1.25;;;;;;;;;;4969458;28;20042;-78
2023/07/24 06:16:39;;;;;;;2.95;1.27;;;;;;;;;;4949064;28;20039;-78
2023/07/24 06:19:04;;;;;;;6.15;1.65;;;;;;;;;;4973186;28;20031;-78
2023/07/24 06:21:30;;;;;;;2.90;1.33;;;;;;;;;;4949584;28;20042;-78
2023/07/24 06:23:56;;;;;;;2.90;1.35;;;;;;;;;;4947176;28;20058;-77
2023/07/24 06:26:21;;;;;;;3.88;1.38;;;;;;;;;;4943660;28;20042;-77
2023/07/24 06:28:47;;;;;;;2.38;1.23;;;;;;;;;;4957160;28;20038;-77
2023/07/24 06:31:12;;;;;;;2.95;1.30;;;;;;;;;;4940830;28;20529;-77
2023/07/24 06:33:37;;;;;;;3.58;1.20;;;;;;;;;;4971134;28;25364;-77
2023/07/24 06:36:03;;;;;;;2.60;1.42;;;;;;;;;;4971776;28;20037;-78
2023/07/24 06:38:28;;;;;;;2.63;1.40;;;;;;;;;;4955682;28;20049;-77
2023/07/24 06:40:54;;;;;;;2.40;1.25;;;;;;;;;;4956618;28;20502;-78
2023/07/24 06:43:19;;;;;;;2.83;1.42;;;;;;;;;;4940232;28;20576;-78
2023/07/24 06:45:44;;;;;;;2.75;1.30;;;;;;;;;;4975885;28;20043;-77
2023/07/24 06:48:10;;;;;;;4.07;1.48;;;;;;;;;;4973670;28;20050;-77
2023/07/24 06:50:35;;;;;;;3.20;1.65;;;;;;;;;;4947763;28;20030;-77
2023/07/24 06:53:00;;;;;;;2.95;1.40;;;;;;;;;;4976498;28;20045;-77
2023/07/24 06:55:26;;;;;;;2.53;1.40;;;;;;;;;;4975005;28;20031;-77
2023/07/24 06:57:51;;;;;;;4.68;1.75;;;;;;;;;;4949026;28;20061;-77
2023/07/24 07:00:17;;;;;;;3.20;1.48;;;;;;;;;;4961679;28;20039;-77
2023/07/24 07:02:42;;;;;;;2.90;1.60;;;;;;;;;;4977147;28;20045;-77
2023/07/24 07:05:08;;;;;;;3.10;1.60;;;;;;;;;;4966728;28;21329;-77
2023/07/24 07:07:33;;;;;;;2.92;1.40;;;;;;;;;;4962078;28;20038;-77
2023/07/24 07:09:59;;;;;;;3.53;1.63;;;;;;;;;;4977063;28;20041;-77
2023/07/24 07:12:24;;;;;;;4.43;1.50;;;;;;;;;;4977218;28;20386;-75
2023/07/24 07:14:49;;;;;;;3.13;1.60;;;;;;;;;;4953063;28;20530;-77
2023/07/24 07:17:15;;;;;;;2.50;1.15;;;;;;;;;;4946715;28;20057;-76
2023/07/24 07:19:40;;;;;;;2.95;1.52;;;;;;;;;;4962551;28;20543;-77
2023/07/24 07:22:05;;;;;;;3.00;1.52;;;;;;;;;;4958071;28;20034;-77
2023/07/24 07:24:31;;;;;;;3.50;1.45;;;;;;;;;;4952749;28;20039;-78
2023/07/24 07:26:56;;;;;;;2.90;1.40;;;;;;;;;;4976384;28;20026;-78
2023/07/24 07:29:22;;;;;;;3.70;1.40;;;;;;;;;;4959381;28;20058;-78
2023/07/24 07:31:47;;;;;;;3.97;1.40;;;;;;;;;;4952895;28;20214;-77
2023/07/24 07:34:12;;;;;;;2.40;1.20;;;;;;;;;;4970420;28;20161;-78
2023/07/24 07:36:38;;;;;;;2.70;1.40;;;;;;;;;;4951608;28;20046;-77
2023/07/24 07:39:03;;;;;;;2.80;1.40;;;;;;;;;;4954033;28;20427;-77
2023/07/24 07:41:28;;;;;;;3.05;1.42;;;;;;;;;;4958853;28;20141;-78
2023/07/24 07:43:54;;;;;;;2.65;1.40;;;;;;;;;;4951794;28;20035;-77
2023/07/24 07:46:19;;;;;;;2.45;1.10;;;;;;;;;;4957536;28;20066;-79
2023/07/24 07:48:46;;;;;;;3.05;1.48;;;;;;;;;;4958149;28;20042;-77
2023/07/24 07:51:12;;;;;;;2.30;1.17;;;;;;;;;;4962635;28;20081;-78
2023/07/24 07:53:38;;;;;;;3.10;1.30;;;;;;;;;;4974865;28;20117;-77
2023/07/24 07:56:04;;;;;;;2.55;1.13;;;;;;;;;;4960332;28;20041;-78
2023/07/24 07:58:29;;;;;;;2.28;1.10;;;;;;;;;;4960507;28;20498;-78
2023/07/24 08:00:55;;;;;;;3.85;1.30;;;;;;;;;;4953942;28;20125;-77
2023/07/24 08:03:20;;;;;;;2.65;1.20;;;;;;;;;;4962098;28;20097;-78
2023/07/24 08:05:46;;;;;;;2.60;1.10;;;;;;;;;;4952173;28;20034;-79
2023/07/24 08:08:11;;;;;;;2.97;1.33;;;;;;;;;;4967689;28;20034;-78
2023/07/24 08:10:38;;;;;;;2.28;1.10;;;;;;;;;;4963307;28;20057;-78
2023/07/24 08:13:03;;;;;;;2.80;1.27;;;;;;;;;;4976688;28;20109;-78
2023/07/24 08:15:29;;;;;;;2.63;1.25;;;;;;;;;;4964968;28;20090;-78
2023/07/24 08:17:54;;;;;;;2.50;1.20;;;;;;;;;;4953468;28;20033;-78
2023/07/24 08:20:19;;;;;;;2.53;1.30;;;;;;;;;;4972928;28;20126;-78
2023/07/24 08:22:45;;;;;;;3.00;1.10;;;;;;;;;;4949606;28;20146;-78
2023/07/24 08:25:10;;;;;;;2.95;1.02;;;;;;;;;;4952238;28;20118;-78
2023/07/24 08:27:35;;;;;;;1.92;1.00;;;;;;;;;;4951672;28;20398;-78
2023/07/24 08:30:01;;;;;;;2.72;1.20;;;;;;;;;;4960360;28;20465;-77
2023/07/24 08:32:26;;;;;;;2.40;1.20;;;;;;;;;;4950420;28;20565;-77
2023/07/24 08:34:52;;;;;;;2.60;1.20;;;;;;;;;;4955120;28;20035;-77
2023/07/24 08:37:17;;;;;;;3.83;1.30;;;;;;;;;;4963503;28;20042;-76
2023/07/24 08:39:42;;;;;;;2.45;1.00;;;;;;;;;;4944577;28;20537;-77
2023/07/24 08:42:12;;;;;;;2.70;1.10;;;;;;;;;;4962410;28;20046;-78
2023/07/24 08:44:37;;;;;;;2.78;1.02;;;;;;;;;;4952055;28;20046;-77
2023/07/24 08:47:03;;;;;;;5.05;1.20;;;;;;;;;;4972983;28;20498;-77
2023/07/24 08:49:30;;;;;;;3.42;1.20;;;;;;;;;;4959288;28;20038;-77
2023/07/24 08:51:56;;;;;;;2.88;0.98;;;;;;;;;;4944877;28;20615;-77
2023/07/24 08:54:22;;;;;;;3.10;1.00;;;;;;;;;;4975417;28;20070;-78
2023/07/24 08:56:50;;;;;;;2.72;1.50;;;;;;;;;;4991168;28;20034;-78
2023/07/24 08:59:15;;;;;;;;;;;;;;;;;;4946506;28;20565;-78
2023/07/24 09:01:41;;;;;;;2.85;1.35;;;;;;;;;;4971031;28;19926;-78
2023/07/24 09:04:06;;;;;;;2.40;1.00;;;;;;;;;;4956974;28;20071;-78
2023/07/24 09:06:32;;;;;;;2.88;1.23;;;;;;;;;;4957506;28;20395;-77
2023/07/24 09:08:57;;;;;;;3.95;1.20;;;;;;;;;;4950979;28;20031;-77
2023/07/24 09:11:22;;;;;;;2.58;1.10;;;;;;;;;;4947499;28;20043;-78
2023/07/24 09:13:49;;;;;;;3.22;0.90;;;;;;;;;;4958776;28;20042;-78
2023/07/24 09:16:25;;;;;;;2.55;1.08;;;;;;;;;;4949522;28;20043;-78
2023/07/24 09:18:53;;;;;;;2.30;1.02;;;;;;;;;;4970271;28;20038;-78
2023/07/24 09:21:32;;;;;;;2.92;1.10;;;;;;;;;;4965684;28;20074;-77
2023/07/24 09:24:13;;;;;;;3.40;1.13;;;;;;;;;;4973552;28;20055;-77
2023/07/24 09:26:53;;;;;;;2.10;0.93;;;;;;;;;;4970851;28;20042;-77
2023/07/24 09:29:20;;;;;;;3.25;1.30;;;;;;;;;;4982888;28;20545;-79
2023/07/24 09:31:45;;;;;;;2.63;1.17;;;;;;;;;;4973059;28;20035;-77
2023/07/24 09:34:18;;;;;;;3.03;1.27;;;;;;;;;;4974781;28;20065;-78
2023/07/24 09:36:44;;;;;;;2.65;1.10;;;;;;;;;;4980433;28;20066;-78
2023/07/24 09:39:11;;;;;;;3.88;1.30;;;;;;;;;;4971866;28;20957;-78
2023/07/24 09:41:36;;;;;;;;;;;;;;;;;;4975428;28;20055;-77
2023/07/24 09:44:02;;;;;;;2.53;1.25;;;;;;;;;;4977345;28;19922;-77
2023/07/24 09:46:31;;;;;;;4.35;1.10;;;;;;;;;;4972802;28;20528;-77
2023/07/24 09:48:57;;;;;;;3.15;1.30;;;;;;;;;;4974297;28;20032;-78
2023/07/24 09:51:22;;;;;;;3.90;1.50;;;;;;;;;;4972515;28;20045;-77
2023/07/24 09:53:58;;;;;;;3.55;1.55;;;;;;;;;;4965795;28;20039;-77
2023/07/24 09:56:24;;;;;;;3.20;1.40;;;;;;;;;;4979764;28;20394;-78
2023/07/24 09:58:54;;;;;;;2.95;1.30;;;;;;;;;;4982789;28;20031;-79
2023/07/24 10:01:19;;;;;;;2.60;1.15;;;;;;;;;;4969243;28;20071;-79
2023/07/24 10:03:49;;;;;;;3.15;1.58;;;;;;;;;;4984531;28;20084;-77
2023/07/24 10:06:15;;;;;;;3.22;1.45;;;;;;;;;;4974345;28;20039;-78
2023/07/24 10:08:41;;;;;;;2.80;1.20;;;;;;;;;;4973866;28;20038;-78
2023/07/24 10:11:08;;;;;;;3.38;1.15;;;;;;;;;;4962006;28;20482;-78
2023/07/24 10:13:36;;;;;;;3.33;1.42;;;;;;;;;;4974644;28;20034;-78
2023/07/24 10:16:04;;;;;;;2.88;1.38;;;;;;;;;;4965238;28;20045;-78
2023/07/24 10:18:30;;;;;;;3.78;1.40;;;;;;;;;;4960335;28;20046;-77
2023/07/24 10:21:07;;;;;;;4.13;1.60;;;;;;;;;;4979926;28;20045;-78
2023/07/24 10:23:38;;;;;;;3.63;1.70;;;;;;;;;;4958611;28;20399;-77
2023/07/24 10:26:04;;;;;;;3.90;2.00;;;;;;;;;;4960250;28;20113;-78
2023/07/24 10:28:38;;;;;;;3.40;1.90;;;;;;;;;;4955271;28;20039;-77
2023/07/24 10:31:08;;;;;;;4.40;2.08;;;;;;;;;;4974749;28;21160;-76
2023/07/24 10:33:43;;;;;;;3.63;1.55;;;;;;;;;;4966514;28;20078;-78
2023/07/24 10:36:10;;;;;;;3.58;1.90;;;;;;;;;;4971892;28;20035;-78
2023/07/24 10:38:40;;;;;;;4.25;2.00;;;;;;;;;;4975330;28;20522;-78
2023/07/24 10:41:08;;;;;;;3.80;1.70;;;;;;;;;;4972730;28;20030;-79
2023/07/24 10:43:44;;;;;;;3.83;2.03;;;;;;;;;;4976312;28;20034;-78
2023/07/24 10:46:10;;;;;;;5.00;2.10;;;;;;;;;;4975766;28;20427;-77
2023/07/24 10:48:35;;;;;;;4.30;2.35;;;;;;;;;;4975395;28;20042;-77
2023/07/24 10:51:07;;;;;;;4.78;2.35;;;;;;;;;;4966265;28;20145;-77
2023/07/24 10:53:34;;;;;;;4.97;2.45;;;;;;;;;;4973905;28;20446;-77
2023/07/24 10:56:00;;;;;;;4.22;2.50;;;;;;;;;;4974608;28;20486;-78
2023/07/24 10:58:26;;;;;;;4.50;2.45;;;;;;;;;;4963685;28;20039;-79
2023/07/24 11:00:52;;;;;;;7.30;3.07;;;;;;;;;;4972183;28;20085;-77
2023/07/24 11:03:17;;;;;;;5.03;2.70;;;;;;;;;;4961997;28;20074;-77
2023/07/24 11:05:45;;;;;;;4.57;2.72;;;;;;;;;;4972842;28;20509;-77
2023/07/24 11:08:15;;;;;;;4.63;2.45;;;;;;;;;;4973796;28;20059;-78
2023/07/24 11:10:54;;;;;;;6.05;2.50;;;;;;;;;;4979673;28;20027;-77
2023/07/24 11:13:21;;;;;;;5.15;2.50;;;;;;;;;;4973239;28;20031;-78
2023/07/24 11:15:47;;;;;;;;;;;;;;;;;;4974023;28;20582;-77
2023/07/24 11:18:13;;;;;;;5.70;2.10;;;;;;;;;;4971962;28;20013;-77
2023/07/24 11:20:47;;;;;;;4.43;2.50;;;;;;;;;;4973169;28;20117;-77
2023/07/24 11:23:13;;;;;;;4.80;2.47;;;;;;;;;;4976787;28;20038;-77
2023/07/24 11:25:39;;;;;;;5.65;2.50;;;;;;;;;;4971523;28;20038;-77
2023/07/24 11:28:06;;;;;;;5.63;2.40;;;;;;;;;;4970305;28;20035;-78
2023/07/24 11:30:31;;;;;;;4.70;2.72;;;;;;;;;;4958563;28;20194;-78
2023/07/24 11:32:59;;;;;;;4.60;2.45;;;;;;;;;;4973276;28;20557;-77
2023/07/24 11:35:25;;;;;;;5.57;3.00;;;;;;;;;;4966606;28;20042;-77
2023/07/24 11:37:51;;;;;;;5.10;2.70;;;;;;;;;;4963803;28;20039;-77
2023/07/24 11:40:16;;;;;;;4.45;2.60;;;;;;;;;;4964064;28;20533;-77
2023/07/24 11:42:45;;;;;;;4.53;2.63;;;;;;;;;;4974031;28;20042;-77
2023/07/24 11:45:11;;;;;;;6.72;2.83;;;;;;;;;;4978629;28;20043;-77
2023/07/24 11:47:48;;;;;;;5.80;3.38;;;;;;;;;;4967019;28;20395;-77
2023/07/24 11:50:15;;;;;;;4.80;2.65;;;;;;;;;;4959906;28;20061;-78
2023/07/24 11:52:45;;;;;;;4.38;2.70;;;;;;;;;;4983160;28;20481;-76
2023/07/24 11:55:15;;;;;;;4.78;2.80;;;;;;;;;;4977477;28;20092;-78
2023/07/24 11:57:40;;;;;;;6.30;2.80;;;;;;;;;;4985534;28;20402;-76
2023/07/24 12:00:16;;;;;;;6.50;2.88;;;;;;;;;;4974685;28;20030;-77
2023/07/24 12:02:42;;;;;;;4.65;2.35;;;;;;;;;;4975407;28;20090;-77
2023/07/24 12:05:10;;;;;;;5.97;2.60;;;;;;;;;;4965615;28;20039;-77
2023/07/24 12:07:35;;;;;;;6.05;2.80;;;;;;;;;;4982659;28;20062;-77
2023/07/24 12:10:02;;;;;;;6.97;2.70;;;;;;;;;;4978381;28;20058;-76
2023/07/24 12:12:42;;;;;;;4.93;2.70;;;;;;;;;;4967767;28;20049;-76
2023/07/24 12:15:08;;;;;;;5.72;2.95;;;;;;;;;;4963236;28;20383;-76
2023/07/24 12:17:33;;;;;;;4.65;2.78;;;;;;;;;;4995570;28;20054;-77
2023/07/24 12:20:00;;;;;;;6.10;2.88;;;;;;;;;;4995975;28;20397;-78
2023/07/24 12:22:26;;;;;;;4.70;2.70;;;;;;;;;;4986666;28;20553;-77
2023/07/24 12:24:51;;;;;;;7.28;2.75;;;;;;;;;;4973475;28;20030;-78
2023/07/24 12:27:17;;;;;;;4.80;2.70;;;;;;;;;;4996044;28;20469;-77
2023/07/24 12:29:42;;;;;;;7.28;2.92;;;;;;;;;;4990787;28;20027;-77
2023/07/24 12:32:08;;;;;;;6.28;2.42;;;;;;;;;;4967979;28;20029;-77
2023/07/24 12:34:33;;;;;;;6.07;2.53;;;;;;;;;;4968477;28;20053;-77
2023/07/24 12:36:58;;;;;;;6.32;2.75;;;;;;;;;;4985472;28;20030;-77
2023/07/24 12:39:24;;;;;;;6.57;2.92;;;;;;;;;;4994285;28;20049;-77
2023/07/24 12:41:49;;;;;;;5.38;2.53;;;;;;;;;;4978542;28;20038;-78
2023/07/24 12:44:14;;;;;;;5.55;2.47;;;;;;;;;;4977656;28;20561;-78
2023/07/24 12:46:40;;;;;;;6.30;2.50;;;;;;;;;;4970361;28;20283;-78
2023/07/24 12:49:05;;;;;;;6.88;2.75;;;;;;;;;;4980182;28;20435;-78
2023/07/24 12:51:31;;;;;;;5.15;2.35;;;;;;;;;;4977172;28;20064;-78
2023/07/24 12:53:56;;;;;;;5.65;2.42;;;;;;;;;;4978667;28;20093;-77
2023/07/24 12:56:21;;;;;;;4.57;2.65;;;;;;;;;;4984703;28;20441;-78
2023/07/24 12:58:47;;;;;;;4.50;2.40;;;;;;;;;;4969372;28;20143;-77
2023/07/24 13:01:12;;;;;;;6.45;2.38;;;;;;;;;;4983085;28;20034;-78
2023/07/24 13:03:38;;;;;;;5.78;2.40;;;;;;;;;;4992825;28;20065;-78
2023/07/24 13:06:06;;;;;;;5.78;2.50;;;;;;;;;;4980046;28;20088;-78
2023/07/24 13:08:31;;;;;;;6.53;2.30;;;;;;;;;;4980049;28;20494;-78
2023/07/24 13:10:56;;;;;;;4.88;2.15;;;;;;;;;;4960456;28;20030;-78
2023/07/24 13:13:22;;;;;;;5.72;2.60;;;;;;;;;;4987414;28;20038;-78
2023/07/24 13:15:48;;;;;;;5.88;2.10;;;;;;;;;;4993910;28;20046;-78
2023/07/24 13:18:16;;;;;;;5.10;2.35;;;;;;;;;;4987353;28;20116;-78
2023/07/24 13:20:41;;;;;;;5.53;1.85;;;;;;;;;;4976809;28;20057;-78
2023/07/24 13:23:07;;;;;;;6.38;2.55;;;;;;;;;;4980592;28;20201;-78
2023/07/24 13:25:32;;;;;;;7.10;2.08;;;;;;;;;;4971017;28;20069;-78
2023/07/24 13:27:57;;;;;;;4.00;2.33;;;;;;;;;;4970410;28;20443;-78
2023/07/24 13:30:23;;;;;;;4.75;2.20;;;;;;;;;;4979697;28;20084;-78
2023/07/24 13:32:48;;;;;;;4.10;2.05;;;;;;;;;;4978951;28;20034;-78
2023/07/24 13:35:15;;;;;;;4.28;2.03;;;;;;;;;;4992630;28;20493;-77
2023/07/24 13:37:40;;;;;;;5.05;2.35;;;;;;;;;;4978303;28;20173;-77
2023/07/24 13:40:06;;;;;;;6.60;2.42;;;;;;;;;;4980000;28;20113;-77
2023/07/24 13:42:32;;;;;;;4.35;2.03;;;;;;;;;;4993654;28;20045;-78
2023/07/24 13:44:57;;;;;;;4.65;2.20;;;;;;;;;;4976046;28;20038;-77
2023/07/24 13:47:22;;;;;;;5.10;2.20;;;;;;;;;;4985999;28;20073;-77
2023/07/24 13:49:48;;;;;;;3.88;1.80;;;;;;;;;;4983146;28;20512;-77
2023/07/24 13:52:13;;;;;;;4.68;2.00;;;;;;;;;;4990949;28;20119;-77
2023/07/24 13:54:39;;;;;;;4.75;1.88;;;;;;;;;;4976500;28;20109;-77
2023/07/24 13:57:07;;;;;;;4.18;1.90;;;;;;;;;;4978457;28;20053;-77
2023/07/24 13:59:32;;;;;;;4.03;2.00;;;;;;;;;;4964232;28;20034;-78
2023/07/24 14:01:57;;;;;;;5.15;2.00;;;;;;;;;;4976280;28;20053;-78
2023/07/24 14:04:23;;;;;;;3.63;1.88;;;;;;;;;;4980151;28;20045;-77
2023/07/24 14:06:48;;;;;;;5.47;2.05;;;;;;;;;;4982863;28;20046;-78
2023/07/24 14:09:14;;;;;;;5.63;2.17;;;;;;;;;;4980886;28;20045;-78
2023/07/24 14:11:39;;;;;;;4.05;2.10;;;;;;;;;;4976829;28;20072;-78
2023/07/24 14:14:04;;;;;;;4.15;2.13;;;;;;;;;;4964971;28;20506;-78
2023/07/24 14:16:30;;;;;;;6.65;1.90;;;;;;;;;;4982680;28;20501;-78
2023/07/24 14:18:55;;;;;;;3.53;1.52;;;;;;;;;;4992265;28;20404;-78
2023/07/24 14:21:20;;;;;;;4.57;2.15;;;;;;;;;;4965975;28;20038;-78
2023/07/24 14:23:46;;;;;;;4.28;2.05;;;;;;;;;;4977820;28;20037;-78
2023/07/24 14:26:11;;;;;;;4.57;2.30;;;;;;;;;;4974491;28;20034;-78
2023/07/24 14:28:37;;;;;;;5.55;2.13;;;;;;;;;;4992801;28;20084;-77
2023/07/24 14:31:04;;;;;;;4.05;2.20;;;;;;;;;;4967096;28;20030;-78
2023/07/24 14:33:29;;;;;;;3.90;2.00;;;;;;;;;;4977586;28;20039;-79
2023/07/24 14:35:55;;;;;;;5.35;1.95;;;;;;;;;;4978548;28;20039;-78
2023/07/24 14:38:21;;;;;;;3.83;2.20;;;;;;;;;;4962590;28;20030;-78